Time;durP1;ratioP1;P1;durP2;ratioP2;P2;SDS_P1;SDS_P2;PMS_P1;PMS_P2;Temp;Humidity;BMP_temperature;BMP_pressure;BME280_temperature;BME280_humidity;BME280_pressure;Samples;Min_cycle;Max_cycle;Signal;HPM_P1;HPM_P2
2023/09/07 00:08:53;;;;;;;10.60;8.50;;;;;;;12.92;80.79;100425.02;431835;1267;139574;-62
2023/09/07 00:18:59;;;;;;;9.40;7.80;;;;;;;12.80;81.02;100426.65;432247;1267;140138;-61
2023/09/07 00:29:06;;;;;;;11.60;9.50;;;;;;;12.70;81.58;100422.11;431880;1267;140340;-61
2023/09/07 00:39:12;;;;;;;12.50;9.10;;;;;;;12.62;81.95;100415.78;431963;1267;140741;-61
2023/09/07 00:49:18;;;;;;;12.10;8.70;;;;;;;12.53;82.84;100421.57;432044;1267;139695;-62
2023/09/07 00:59:24;;;;;;;17.30;9.10;;;;;;;12.45;83.38;100424.48;431848;1267;139846;-62
2023/09/07 01:09:33;;;;;;;12.90;8.70;;;;;;;12.37;83.98;100422.31;432033;1266;142599;-61
2023/09/07 01:19:39;;;;;;;11.50;9.80;;;;;;;12.27;84.05;100420.73;432124;1266;139812;-61
2023/09/07 01:29:45;;;;;;;12.00;8.70;;;;;;;12.21;84.98;100424.45;431920;1267;139862;-61
2023/09/07 01:39:51;;;;;;;12.20;7.60;;;;;;;12.13;85.39;100421.04;431871;1270;140797;-61
2023/09/07 01:49:57;;;;;;;11.00;7.70;;;;;;;12.03;85.32;100431.23;431940;1267;139919;-61
2023/09/07 02:00:04;;;;;;;17.10;9.10;;;;;;;11.94;85.67;100428.73;431914;1270;139863;-61
2023/09/07 02:10:11;;;;;;;14.00;10.00;;;;;;;11.87;86.33;100430.90;431718;1265;141639;-62
2023/09/07 02:20:18;;;;;;;14.40;9.70;;;;;;;11.77;86.36;100428.98;431993;1270;140596;-61
2023/09/07 02:30:24;;;;;;;15.80;8.60;;;;;;;11.69;86.21;100428.20;432321;1267;139636;-62
2023/09/07 02:40:30;;;;;;;11.40;8.20;;;;;;;11.59;86.25;100426.58;432048;1267;139932;-60
2023/09/07 02:50:36;;;;;;;16.70;10.00;;;;;;;11.54;87.10;100421.77;432115;1265;141153;-63
2023/09/07 03:00:45;;;;;;;12.20;9.20;;;;;;;11.54;88.23;100428.67;432168;1265;139990;-63
2023/09/07 03:10:51;;;;;;;12.20;9.40;;;;;;;11.49;88.11;100426.11;432180;1267;140190;-63
2023/09/07 03:20:59;;;;;;;16.80;8.60;;;;;;;11.40;87.87;100423.29;432383;1269;140374;-62
2023/09/07 03:31:06;;;;;;;13.00;9.00;;;;;;;11.30;87.86;100428.33;432726;1267;139747;-62
2023/09/07 03:41:12;;;;;;;13.40;10.00;;;;;;;11.25;88.27;100432.84;432589;1269;140797;-61
2023/09/07 03:51:18;;;;;;;19.80;12.30;;;;;;;11.21;88.80;100427.96;432065;1269;141329;-61
2023/09/07 04:01:24;;;;;;;19.10;11.20;;;;;;;11.24;89.93;100431.84;432110;1267;140655;-62
2023/09/07 04:11:30;;;;;;;12.90;9.80;;;;;;;11.29;90.53;100433.48;431854;1267;141605;-62
2023/09/07 04:21:36;;;;;;;15.50;10.50;;;;;;;11.34;90.19;100437.09;431485;1267;144069;-61
2023/09/07 04:31:42;;;;;;;15.70;10.00;;;;;;;11.47;90.04;100437.46;448662;1265;140399;-62
2023/09/07 04:41:48;;;;;;;17.50;9.00;;;;;;;11.72;89.72;100441.16;435647;1266;140707;-61
2023/09/07 04:51:56;;;;;;;22.40;9.90;;;;;;;12.09;89.83;100448.79;432191;1265;141050;-62
2023/09/07 05:02:03;;;;;;;14.40;10.10;;;;;;;12.52;89.88;100456.74;432264;1265;141469;-62
2023/09/07 05:12:10;;;;;;;19.60;11.20;;;;;;;13.06;89.81;100463.05;432322;1265;142781;-62
2023/09/07 05:22:17;;;;;;;14.80;10.20;;;;;;;14.52;93.74;100466.31;432127;1269;139944;-62
2023/09/07 05:32:22;;;;;;;16.90;8.50;;;;;;;18.36;92.70;100472.56;431868;1267;140890;-62
2023/09/07 05:42:29;;;;;;;13.80;8.20;;;;;;;23.28;87.68;100475.64;431898;1267;139408;-65
2023/09/07 05:52:35;;;;;;;16.80;9.30;;;;;;;28.07;77.82;100476.61;432084;1268;139189;-69
2023/09/07 06:02:41;;;;;;;13.70;8.70;;;;;;;32.40;67.52;100480.22;431854;1268;138843;-67
2023/09/07 06:12:47;;;;;;;20.50;9.40;;;;;;;35.83;57.34;100475.52;432042;1269;138899;-62
2023/09/07 06:22:53;;;;;;;28.10;10.10;;;;;;;38.51;45.35;100483.36;432008;1269;139125;-64
2023/09/07 06:33:00;;;;;;;12.70;9.00;;;;;;;41.08;38.90;100487.89;431779;1268;139261;-65
2023/09/07 06:43:06;;;;;;;13.70;9.50;;;;;;;43.33;33.98;100492.96;432362;1267;139270;-66
2023/09/07 06:53:12;;;;;;;17.70;7.70;;;;;;;45.13;30.11;100496.98;432365;1268;139618;-67
2023/09/07 07:03:18;;;;;;;10.90;7.40;;;;;;;46.87;27.35;100498.76;432002;1267;139360;-66
2023/09/07 07:13:24;;;;;;;12.70;6.20;;;;;;;48.68;25.18;100501.33;432071;1268;138782;-65
2023/09/07 07:23:30;;;;;;;8.50;4.70;;;;;;;50.18;23.14;100500.25;432038;1267;138902;-65
2023/09/07 07:33:37;;;;;;;6.50;5.30;;;;;;;51.65;21.39;100509.66;432096;1270;139279;-66
2023/09/07 07:43:43;;;;;;;4.00;3.60;;;;;;;52.39;19.50;100512.67;432309;1269;138785;-67
2023/09/07 07:53:49;;;;;;;8.60;4.60;;;;;;;51.51;18.21;100508.83;432101;1268;139178;-66
2023/09/07 08:03:55;;;;;;;4.30;3.40;;;;;;;51.36;18.27;100507.34;432218;1265;139134;-62
2023/09/07 08:14:01;;;;;;;6.30;3.60;;;;;;;51.11;18.05;100508.55;432053;1265;138670;-60
2023/09/07 08:24:08;;;;;;;5.10;3.00;;;;;;;51.76;17.60;100506.70;448980;1265;138731;-60
2023/09/07 08:34:15;;;;;;;6.50;3.00;;;;;;;51.86;17.24;100514.02;432981;1268;139638;-61
2023/09/07 08:44:21;;;;;;;4.40;2.70;;;;;;;48.61;17.34;100508.66;432164;1265;140837;-60
2023/09/07 08:54:28;;;;;;;4.70;2.60;;;;;;;42.72;19.43;100506.65;432226;1264;138923;-60
2023/09/07 09:04:36;;;;;;;4.20;3.10;;;;;;;38.70;21.84;100505.94;432195;1270;139160;-60
2023/09/07 09:14:45;;;;;;;3.00;2.70;;;;;;;36.02;24.12;100504.35;432214;1265;138724;-59
2023/09/07 09:24:51;;;;;;;2.80;2.60;;;;;;;33.82;25.79;100510.60;432368;1265;139240;-60
2023/09/07 09:34:58;;;;;;;3.10;2.70;;;;;;;32.39;27.75;100511.03;432083;1269;138803;-61
2023/09/07 09:45:05;;;;;;;2.90;2.70;;;;;;;31.55;28.77;100508.84;432151;1265;140532;-60
2023/09/07 09:55:13;;;;;;;5.20;2.90;;;;;;;30.76;30.01;100507.06;432333;1270;138844;-60
2023/09/07 10:05:21;;;;;;;5.30;2.50;;;;;;;30.16;31.09;100507.44;432412;1265;140903;-60
2023/09/07 10:15:31;;;;;;;4.80;3.10;;;;;;;29.73;32.03;100502.52;432240;1265;139025;-59
2023/09/07 10:25:38;;;;;;;5.90;2.50;;;;;;;29.26;32.83;100496.98;432590;1269;138626;-60
2023/09/07 10:35:44;;;;;;;3.10;2.60;;;;;;;28.49;33.48;100490.86;432178;1265;139908;-60
2023/09/07 10:45:50;;;;;;;5.60;3.00;;;;;;;27.89;34.55;100486.82;432176;1267;139133;-60
2023/09/07 10:55:58;;;;;;;3.20;2.90;;;;;;;27.56;35.36;100475.77;432665;1267;139385;-61
2023/09/07 11:06:07;;;;;;;4.70;3.10;;;;;;;27.38;35.91;100471.22;432221;1270;138549;-71
2023/09/07 11:16:13;;;;;;;3.40;3.10;;;;;;;27.21;36.44;100471.83;433585;1268;138559;-68
2023/09/07 11:26:19;;;;;;;5.60;3.60;;;;;;;27.10;36.87;100479.81;434454;1267;140371;-68
2023/09/07 11:36:25;;;;;;;3.60;2.70;;;;;;;27.10;37.07;100473.14;432177;1269;138693;-69
2023/09/07 11:46:31;;;;;;;3.30;3.00;;;;;;;27.11;37.29;100468.14;432185;1270;138638;-61
2023/09/07 11:56:40;;;;;;;3.10;2.80;;;;;;;27.12;37.65;100456.75;431724;1268;177920;-61
2023/09/07 12:06:46;;;;;;;4.10;2.80;;;;;;;27.15;37.64;100451.93;432197;1269;138759;-61
2023/09/07 12:16:52;;;;;;;3.90;3.40;;;;;;;27.08;37.71;100451.51;431927;1269;139773;-62
2023/09/07 12:26:59;;;;;;;2.80;2.60;;;;;;;27.01;37.93;100447.97;431938;1270;139700;-62
2023/09/07 12:37:06;;;;;;;3.10;2.80;;;;;;;26.85;37.89;100449.64;432256;1270;138910;-68
2023/09/07 12:47:11;;;;;;;3.50;3.00;;;;;;;26.63;38.28;100446.52;432154;1267;140019;-65
2023/09/07 12:57:17;;;;;;;4.90;2.80;;;;;;;26.37;38.73;100433.07;432134;1269;139070;-64
2023/09/07 13:07:23;;;;;;;4.10;2.50;;;;;;;26.20;39.08;100425.17;432450;1270;138518;-65
2023/09/07 13:17:29;;;;;;;2.80;2.40;;;;;;;26.09;39.29;100408.15;432717;1269;140511;-66
2023/09/07 13:27:35;;;;;;;3.20;2.90;;;;;;;26.03;39.20;100402.17;432243;1267;139140;-67
2023/09/07 13:37:40;;;;;;;4.50;3.00;;;;;;;25.96;39.38;100398.56;432343;1265;138587;-64
2023/09/07 13:47:46;;;;;;;3.40;2.70;;;;;;;25.97;39.72;100396.09;432212;1270;139956;-68
2023/09/07 13:57:52;;;;;;;4.20;2.40;;;;;;;26.07;39.60;100391.54;432046;1269;138746;-67
2023/09/07 14:07:58;;;;;;;3.20;2.90;;;;;;;26.31;39.57;100385.55;432371;1269;138768;-62
2023/09/07 14:18:05;;;;;;;4.00;2.70;;;;;;;26.49;39.64;100387.73;432227;1270;138958;-70
2023/09/07 14:28:10;;;;;;;3.80;2.90;;;;;;;26.26;39.65;100383.93;432406;1269;138804;-68
2023/09/07 14:38:16;;;;;;;4.10;2.80;;;;;;;25.97;40.01;100376.52;433085;1267;139659;-63
2023/09/07 14:48:22;;;;;;;5.30;3.40;;;;;;;25.88;40.27;100373.67;432272;1270;138972;-62
2023/09/07 14:58:28;;;;;;;3.80;3.50;;;;;;;25.82;40.65;100374.86;432235;1270;139137;-68
2023/09/07 15:08:34;;;;;;;4.20;2.80;;;;;;;25.61;40.82;100374.27;433377;1269;140636;-69
2023/09/07 15:18:40;;;;;;;4.10;3.50;;;;;;;25.47;41.26;100367.55;432681;1270;140343;-65
2023/09/07 15:28:50;;;;;;;3.60;3.00;;;;;;;25.41;41.56;100364.89;432412;1270;139066;-64
2023/09/07 15:38:55;;;;;;;4.50;3.30;;;;;;;25.28;41.76;100369.76;432311;1267;139220;-65
2023/09/07 15:49:01;;;;;;;5.70;3.60;;;;;;;25.16;41.99;100368.71;432254;1269;138657;-65
2023/09/07 15:59:07;;;;;;;3.00;2.80;;;;;;;25.02;42.19;100358.46;432230;1268;138710;-66
2023/09/07 16:09:13;;;;;;;3.50;2.40;;;;;;;24.87;42.38;100348.52;433769;1267;139104;-63
2023/09/07 16:19:20;;;;;;;3.50;3.20;;;;;;;24.70;42.75;100350.48;432084;1270;140417;-63
2023/09/07 16:29:26;;;;;;;3.30;3.00;;;;;;;24.50;43.07;100353.34;432013;1267;138928;-63
2023/09/07 16:39:33;;;;;;;3.50;3.10;;;;;;;24.27;43.60;100346.37;432769;1267;138677;-63
2023/09/07 16:49:39;;;;;;;6.30;3.10;;;;;;;23.99;43.87;100348.98;432890;1269;138678;-63
2023/09/07 16:59:47;;;;;;;8.90;4.70;;;;;;;23.70;44.61;100346.83;432102;1267;139230;-63
2023/09/07 17:09:56;;;;;;;5.90;3.80;;;;;;;23.34;45.32;100348.46;432350;1270;139916;-63
2023/09/07 17:20:03;;;;;;;4.60;3.30;;;;;;;22.98;46.41;100351.30;432329;1268;138614;-63
2023/09/07 17:30:11;;;;;;;6.20;3.50;;;;;;;22.62;47.35;100357.48;432427;1269;138982;-63
2023/09/07 17:40:17;;;;;;;9.10;4.50;;;;;;;22.26;48.29;100362.02;432957;1267;139191;-63
2023/09/07 17:50:23;;;;;;;7.00;4.00;;;;;;;21.96;49.28;100377.63;432285;1270;139579;-65
2023/09/07 18:00:29;;;;;;;8.70;3.80;;;;;;;21.64;50.48;100380.55;432774;1265;138639;-68
2023/09/07 18:10:35;;;;;;;10.80;5.40;;;;;;;21.33;51.70;100383.52;431942;1265;139167;-64
2023/09/07 18:20:41;;;;;;;15.30;6.00;;;;;;;21.00;52.85;100390.96;432236;1269;140860;-63
2023/09/07 18:30:47;;;;;;;11.70;6.20;;;;;;;20.72;54.31;100390.00;432486;1266;138961;-63
2023/09/07 18:40:53;;;;;;;12.70;6.10;;;;;;;20.43;55.35;100393.27;432219;1265;139861;-64
2023/09/07 18:51:03;;;;;;;13.40;6.50;;;;;;;20.21;56.00;100394.38;432069;1267;138904;-64
2023/09/07 19:01:17;;;;;;;12.40;6.70;;;;;;;20.04;56.65;100394.88;432321;1267;139263;-63
2023/09/07 19:11:23;;;;;;;12.60;7.10;;;;;;;19.88;57.42;100395.08;432430;1269;138870;-63
2023/09/07 19:21:30;;;;;;;14.40;7.30;;;;;;;19.68;58.14;100386.66;432498;1267;138743;-63
2023/09/07 19:31:41;;;;;;;11.00;7.30;;;;;;;19.58;58.88;100388.80;432337;1266;141176;-63
2023/09/07 19:41:48;;;;;;;13.20;8.30;;;;;;;19.42;59.63;100394.32;432441;1267;139867;-63
2023/09/07 19:51:54;;;;;;;16.20;8.80;;;;;;;19.19;60.62;100392.08;432020;1267;140319;-63
2023/09/07 20:02:04;;;;;;;21.10;10.40;;;;;;;18.92;61.48;100393.28;432005;1267;141805;-63
2023/09/07 20:12:10;;;;;;;13.10;7.90;;;;;;;18.67;62.25;100386.52;432215;1267;139918;-63
2023/09/07 20:22:17;;;;;;;9.90;6.20;;;;;;;18.54;63.23;100382.30;432007;1267;140499;-63
2023/09/07 20:32:23;;;;;;;11.20;7.10;;;;;;;18.55;63.66;100379.74;432750;1269;139595;-64
2023/09/07 20:42:29;;;;;;;8.80;7.20;;;;;;;18.52;64.23;100373.14;432057;1270;140258;-63
2023/09/07 20:52:34;;;;;;;11.90;7.20;;;;;;;18.43;64.52;100368.84;432197;1269;139863;-63
2023/09/07 21:02:40;;;;;;;15.10;8.20;;;;;;;18.27;65.21;100369.88;432212;1270;140485;-64
2023/09/07 21:12:46;;;;;;;9.40;6.70;;;;;;;18.06;65.43;100372.14;432308;1267;140091;-63
2023/09/07 21:22:52;;;;;;;10.40;6.70;;;;;;;17.67;65.98;100385.73;432452;1267;139838;-63
2023/09/07 21:32:59;;;;;;;10.70;6.90;;;;;;;17.24;66.95;100385.20;432878;1265;139926;-62
2023/09/07 21:43:05;;;;;;;11.90;10.30;;;;;;;16.87;67.92;100386.18;432261;1269;139555;-63
2023/09/07 21:53:11;;;;;;;8.80;6.70;;;;;;;16.55;68.94;100388.38;432147;1265;140824;-62
2023/09/07 22:03:17;;;;;;;14.00;9.00;;;;;;;16.26;69.91;100388.30;431841;1265;139969;-63
2023/09/07 22:13:23;;;;;;;12.20;7.40;;;;;;;15.98;70.68;100391.77;432059;1265;140201;-63
2023/09/07 22:23:29;;;;;;;6.70;5.70;;;;;;;15.75;71.78;100390.41;432118;1265;140307;-62
2023/09/07 22:33:48;;;;;;;9.50;6.50;;;;;;;15.54;72.65;100388.23;431939;1264;139492;-64
2023/09/07 22:43:54;;;;;;;7.70;6.90;;;;;;;15.34;73.39;100380.27;432291;1265;139494;-63
2023/09/07 22:54:00;;;;;;;10.00;7.70;;;;;;;15.15;74.29;100380.39;433257;1265;139678;-64
2023/09/07 23:04:07;;;;;;;15.50;8.40;;;;;;;14.95;75.03;100385.44;431940;1265;141751;-62
2023/09/07 23:14:13;;;;;;;10.50;7.10;;;;;;;14.79;76.32;100384.07;432161;1266;140688;-63
2023/09/07 23:24:19;;;;;;;9.90;7.80;;;;;;;14.66;76.90;100382.64;431968;1265;141918;-62
2023/09/07 23:34:27;;;;;;;11.10;8.50;;;;;;;14.57;78.20;100380.48;432020;1270;139560;-62
2023/09/07 23:44:33;;;;;;;10.70;8.90;;;;;;;14.44;78.96;100382.69;432166;1268;139911;-63
2023/09/07 23:54:39;;;;;;;12.10;7.50;;;;;;;14.32;79.26;100389.35;432224;1269;139527;-62
